sensor_id;sensor_type;location;lat;lon;timestamp;pressure;altitude;pressure_sealevel;temperature;humidity
50349;BME280;36250;48.740;22.174;2023-03-05T00:01:09;100017.44;;;4.59;55.88
50349;BME280;36250;48.740;22.174;2023-03-05T00:03:35;100015.16;;;4.56;56.49
50349;BME280;36250;48.740;22.174;2023-03-05T00:06:01;100015.34;;;4.61;57.07
50349;BME280;36250;48.740;22.174;2023-03-05T00:08:28;100028.22;;;4.59;56.85
50349;BME280;36250;48.740;22.174;2023-03-05T00:10:58;100034.03;;;4.56;57.58
50349;BME280;36250;48.740;22.174;2023-03-05T00:13:24;100031.31;;;4.56;57.58
50349;BME280;36250;48.740;22.174;2023-03-05T00:15:49;100028.03;;;4.54;57.89
50349;BME280;36250;48.740;22.174;2023-03-05T00:18:15;100026.41;;;4.47;57.39
50349;BME280;36250;48.740;22.174;2023-03-05T00:20:40;100023.31;;;4.43;59.00
50349;BME280;36250;48.740;22.174;2023-03-05T00:23:05;100034.06;;;4.43;58.49
50349;BME280;36250;48.740;22.174;2023-03-05T00:25:34;100017.91;;;4.43;59.25
50349;BME280;36250;48.740;22.174;2023-03-05T00:27:59;100018.13;;;4.42;59.06
50349;BME280;36250;48.740;22.174;2023-03-05T00:30:24;100032.44;;;4.42;59.35
50349;BME280;36250;48.740;22.174;2023-03-05T00:32:50;100032.22;;;4.44;57.94
50349;BME280;36250;48.740;22.174;2023-03-05T00:35:15;100022.69;;;4.41;57.93
50349;BME280;36250;48.740;22.174;2023-03-05T00:37:40;100023.34;;;4.37;56.74
50349;BME280;36250;48.740;22.174;2023-03-05T00:40:06;100013.81;;;4.34;57.53
50349;BME280;36250;48.740;22.174;2023-03-05T00:42:32;100016.28;;;4.36;56.69
50349;BME280;36250;48.740;22.174;2023-03-05T00:45:05;100013.41;;;4.37;56.26
50349;BME280;36250;48.740;22.174;2023-03-05T00:47:31;100020.41;;;4.38;55.90
50349;BME280;36250;48.740;22.174;2023-03-05T00:49:57;100013.41;;;4.37;56.18
50349;BME280;36250;48.740;22.174;2023-03-05T00:52:23;100008.44;;;4.34;55.80
50349;BME280;36250;48.740;22.174;2023-03-05T00:54:49;100007.81;;;4.32;55.47
50349;BME280;36250;48.740;22.174;2023-03-05T00:57:14;100004.28;;;4.32;54.22
50349;BME280;36250;48.740;22.174;2023-03-05T00:59:40;100000.53;;;4.33;55.20
50349;BME280;36250;48.740;22.174;2023-03-05T01:02:05;100008.81;;;4.38;54.94
50349;BME280;36250;48.740;22.174;2023-03-05T01:04:31;100005.31;;;4.37;54.24
50349;BME280;36250;48.740;22.174;2023-03-05T01:06:56;100015.91;;;4.32;55.17
50349;BME280;36250;48.740;22.174;2023-03-05T01:09:21;100007.63;;;4.27;54.99
50349;BME280;36250;48.740;22.174;2023-03-05T01:11:50;100011.78;;;4.23;54.41
50349;BME280;36250;48.740;22.174;2023-03-05T01:14:15;100009.31;;;4.22;54.92
50349;BME280;36250;48.740;22.174;2023-03-05T01:16:41;100007.03;;;4.19;54.74
50349;BME280;36250;48.740;22.174;2023-03-05T01:19:06;100017.22;;;4.17;55.14
50349;BME280;36250;48.740;22.174;2023-03-05T01:21:33;100011.59;;;4.18;54.77
50349;BME280;36250;48.740;22.174;2023-03-05T01:23:59;100013.88;;;4.21;55.41
50349;BME280;36250;48.740;22.174;2023-03-05T01:26:25;100014.88;;;4.27;55.15
50349;BME280;36250;48.740;22.174;2023-03-05T01:28:50;100022.97;;;4.27;55.17
50349;BME280;36250;48.740;22.174;2023-03-05T01:31:15;100024.63;;;4.28;54.09
50349;BME280;36250;48.740;22.174;2023-03-05T01:33:41;100026.50;;;4.27;54.41
50349;BME280;36250;48.740;22.174;2023-03-05T01:36:08;100027.53;;;4.26;53.88
50349;BME280;36250;48.740;22.174;2023-03-05T01:38:36;100037.28;;;4.27;54.03
50349;BME280;36250;48.740;22.174;2023-03-05T01:41:01;100031.28;;;4.25;53.97
50349;BME280;36250;48.740;22.174;2023-03-05T01:43:29;100035.41;;;4.21;55.42
50349;BME280;36250;48.740;22.174;2023-03-05T01:48:48;100037.91;;;4.16;56.29
50349;BME280;36250;48.740;22.174;2023-03-05T01:51:16;100035.03;;;4.18;55.75
50349;BME280;36250;48.740;22.174;2023-03-05T01:53:42;100035.41;;;4.21;56.22
50349;BME280;36250;48.740;22.174;2023-03-05T01:56:08;100035.84;;;4.18;54.35
50349;BME280;36250;48.740;22.174;2023-03-05T01:58:34;100030.84;;;4.22;54.53
50349;BME280;36250;48.740;22.174;2023-03-05T02:00:59;100029.03;;;4.16;52.96
50349;BME280;36250;48.740;22.174;2023-03-05T02:03:26;100026.13;;;4.17;53.06
50349;BME280;36250;48.740;22.174;2023-03-05T02:05:51;100029.22;;;4.14;52.86
50349;BME280;36250;48.740;22.174;2023-03-05T02:08:21;100027.19;;;4.10;52.45
50349;BME280;36250;48.740;22.174;2023-03-05T02:10:48;100024.72;;;4.08;52.65
50349;BME280;36250;48.740;22.174;2023-03-05T02:13:26;100038.78;;;4.10;53.08
50349;BME280;36250;48.740;22.174;2023-03-05T02:15:54;100033.41;;;4.10;52.37
50349;BME280;36250;48.740;22.174;2023-03-05T02:18:20;100028.00;;;4.10;50.38
50349;BME280;36250;48.740;22.174;2023-03-05T02:23:23;100035.03;;;4.11;50.71
50349;BME280;36250;48.740;22.174;2023-03-05T02:25:49;100044.16;;;4.10;50.15
50349;BME280;36250;48.740;22.174;2023-03-05T02:31:12;100044.59;;;4.07;50.96
50349;BME280;36250;48.740;22.174;2023-03-05T02:33:38;100049.97;;;4.07;51.41
50349;BME280;36250;48.740;22.174;2023-03-05T02:36:04;100050.19;;;4.06;51.58
50349;BME280;36250;48.740;22.174;2023-03-05T02:38:29;100051.66;;;4.08;51.64
50349;BME280;36250;48.740;22.174;2023-03-05T02:40:54;100044.56;;;4.14;51.47
50349;BME280;36250;48.740;22.174;2023-03-05T02:43:20;100052.00;;;4.18;52.12
50349;BME280;36250;48.740;22.174;2023-03-05T02:45:45;100047.03;;;4.22;52.23
50349;BME280;36250;48.740;22.174;2023-03-05T02:48:10;100040.38;;;4.24;51.89
50349;BME280;36250;48.740;22.174;2023-03-05T02:50:36;100038.53;;;4.18;50.99
50349;BME280;36250;48.740;22.174;2023-03-05T02:53:04;100043.72;;;4.20;51.99
50349;BME280;36250;48.740;22.174;2023-03-05T02:55:29;100040.16;;;4.26;52.01
50349;BME280;36250;48.740;22.174;2023-03-05T02:57:54;100033.72;;;4.33;50.82
50349;BME280;36250;48.740;22.174;2023-03-05T03:00:20;100027.91;;;4.36;51.23
50349;BME280;36250;48.740;22.174;2023-03-05T03:02:45;100034.53;;;4.34;51.46
50349;BME280;36250;48.740;22.174;2023-03-05T03:05:11;100038.06;;;4.34;50.61
50349;BME280;36250;48.740;22.174;2023-03-05T03:07:36;100041.13;;;4.38;50.64
50349;BME280;36250;48.740;22.174;2023-03-05T03:10:03;100035.38;;;4.34;49.22
50349;BME280;36250;48.740;22.174;2023-03-05T03:12:29;100043.88;;;4.31;49.80
50349;BME280;36250;48.740;22.174;2023-03-05T03:14:54;100043.31;;;4.16;50.16
50349;BME280;36250;48.740;22.174;2023-03-05T03:17:20;100036.69;;;4.12;49.83
50349;BME280;36250;48.740;22.174;2023-03-05T03:19:45;100032.56;;;4.10;50.65
50349;BME280;36250;48.740;22.174;2023-03-05T03:22:13;100038.19;;;4.08;50.58
50349;BME280;36250;48.740;22.174;2023-03-05T03:24:41;100040.03;;;4.08;51.00
50349;BME280;36250;48.740;22.174;2023-03-05T03:27:07;100032.78;;;4.08;52.02
50349;BME280;36250;48.740;22.174;2023-03-05T03:29:32;100028.25;;;4.02;52.38
50349;BME280;36250;48.740;22.174;2023-03-05T03:31:58;100033.84;;;4.01;52.44
50349;BME280;36250;48.740;22.174;2023-03-05T03:34:24;100031.16;;;3.94;53.42
50349;BME280;36250;48.740;22.174;2023-03-05T03:36:50;100028.06;;;3.84;53.73
50349;BME280;36250;48.740;22.174;2023-03-05T03:39:17;100017.53;;;3.82;53.33
50349;BME280;36250;48.740;22.174;2023-03-05T03:41:44;100017.31;;;3.77;53.01
50349;BME280;36250;48.740;22.174;2023-03-05T03:44:11;100015.47;;;3.78;52.66
50349;BME280;36250;48.740;22.174;2023-03-05T03:46:38;100023.53;;;3.78;53.18
50349;BME280;36250;48.740;22.174;2023-03-05T03:49:05;100018.59;;;3.68;52.49
50349;BME280;36250;48.740;22.174;2023-03-05T03:51:31;100023.56;;;3.71;51.93
50349;BME280;36250;48.740;22.174;2023-03-05T03:53:57;100019.84;;;3.66;51.36
50349;BME280;36250;48.740;22.174;2023-03-05T03:56:23;100010.94;;;3.65;50.89
50349;BME280;36250;48.740;22.174;2023-03-05T03:58:49;100025.63;;;3.63;51.58
50349;BME280;36250;48.740;22.174;2023-03-05T04:01:16;100025.63;;;3.63;51.59
50349;BME280;36250;48.740;22.174;2023-03-05T04:03:42;100021.94;;;3.64;50.00
50349;BME280;36250;48.740;22.174;2023-03-05T04:06:07;100020.88;;;3.65;50.37
50349;BME280;36250;48.740;22.174;2023-03-05T04:08:33;100028.75;;;3.66;51.10
50349;BME280;36250;48.740;22.174;2023-03-05T04:11:00;100030.59;;;3.66;50.73
50349;BME280;36250;48.740;22.174;2023-03-05T04:13:25;100026.44;;;3.70;49.97
50349;BME280;36250;48.740;22.174;2023-03-05T04:15:51;100031.00;;;3.76;51.07
50349;BME280;36250;48.740;22.174;2023-03-05T04:18:17;100035.97;;;3.79;51.37
50349;BME280;36250;48.740;22.174;2023-03-05T04:20:42;100032.44;;;3.85;51.52
50349;BME280;36250;48.740;22.174;2023-03-05T04:23:07;100027.66;;;3.87;50.42
50349;BME280;36250;48.740;22.174;2023-03-05T04:25:33;100031.19;;;3.87;51.49
50349;BME280;36250;48.740;22.174;2023-03-05T04:27:59;100031.81;;;3.83;51.88
50349;BME280;36250;48.740;22.174;2023-03-05T04:30:24;100033.44;;;3.84;51.79
50349;BME280;36250;48.740;22.174;2023-03-05T04:32:49;100034.09;;;3.86;52.26
50349;BME280;36250;48.740;22.174;2023-03-05T04:35:15;100029.13;;;3.83;52.08
50349;BME280;36250;48.740;22.174;2023-03-05T04:37:40;100035.53;;;3.82;52.19
50349;BME280;36250;48.740;22.174;2023-03-05T04:40:06;100032.03;;;3.75;51.01
50349;BME280;36250;48.740;22.174;2023-03-05T04:42:32;100033.69;;;3.76;52.37
50349;BME280;36250;48.740;22.174;2023-03-05T04:44:58;100029.16;;;3.76;52.36
50349;BME280;36250;48.740;22.174;2023-03-05T04:47:23;100033.47;;;3.77;52.14
50349;BME280;36250;48.740;22.174;2023-03-05T04:49:48;100036.16;;;3.77;52.21
50349;BME280;36250;48.740;22.174;2023-03-05T04:52:14;100033.28;;;3.79;52.02
50349;BME280;36250;48.740;22.174;2023-03-05T04:54:39;100031.22;;;3.81;50.37
50349;BME280;36250;48.740;22.174;2023-03-05T04:57:05;100023.78;;;3.76;51.70
50349;BME280;36250;48.740;22.174;2023-03-05T04:59:31;100026.84;;;3.80;52.24
50349;BME280;36250;48.740;22.174;2023-03-05T05:01:56;100027.06;;;3.78;51.43
50349;BME280;36250;48.740;22.174;2023-03-05T05:04:22;100027.47;;;3.75;50.57
50349;BME280;36250;48.740;22.174;2023-03-05T05:06:47;100035.97;;;3.72;49.69
50349;BME280;36250;48.740;22.174;2023-03-05T05:09:13;100030.81;;;3.71;50.03
50349;BME280;36250;48.740;22.174;2023-03-05T05:11:38;100034.94;;;3.67;49.64
50349;BME280;36250;48.740;22.174;2023-03-05T05:14:04;100043.00;;;3.67;50.62
50349;BME280;36250;48.740;22.174;2023-03-05T05:16:29;100038.06;;;3.70;49.94
50349;BME280;36250;48.740;22.174;2023-03-05T05:18:55;100033.09;;;3.74;48.69
50349;BME280;36250;48.740;22.174;2023-03-05T05:21:20;100046.53;;;3.74;49.12
50349;BME280;36250;48.740;22.174;2023-03-05T05:23:46;100038.88;;;3.71;48.74
50349;BME280;36250;48.740;22.174;2023-03-05T05:26:12;100038.91;;;3.64;49.47
50349;BME280;36250;48.740;22.174;2023-03-05T05:28:42;100045.53;;;3.62;49.75
50349;BME280;36250;48.740;22.174;2023-03-05T05:31:12;100049.44;;;3.66;50.24
50349;BME280;36250;48.740;22.174;2023-03-05T06:58:02;100067.84;;;3.88;48.88
50349;BME280;36250;48.740;22.174;2023-03-05T07:00:27;100073.22;;;3.95;49.15
50349;BME280;36250;48.740;22.174;2023-03-05T07:02:54;100076.28;;;4.05;49.08
50349;BME280;36250;48.740;22.174;2023-03-05T07:05:20;100071.28;;;4.15;48.04
50349;BME280;36250;48.740;22.174;2023-03-05T07:07:45;100070.63;;;4.26;48.00
50349;BME280;36250;48.740;22.174;2023-03-05T07:10:10;100077.25;;;4.30;49.43
50349;BME280;36250;48.740;22.174;2023-03-05T07:12:36;100072.69;;;4.37;49.82
50349;BME280;36250;48.740;22.174;2023-03-05T07:15:03;100070.59;;;4.39;48.93
50349;BME280;36250;48.740;22.174;2023-03-05T07:17:28;100078.28;;;4.29;50.65
50349;BME280;36250;48.740;22.174;2023-03-05T07:19:53;100073.13;;;4.21;51.25
50349;BME280;36250;48.740;22.174;2023-03-05T07:22:19;100078.50;;;4.21;53.36
50349;BME280;36250;48.740;22.174;2023-03-05T07:24:44;100075.22;;;4.19;53.79
50349;BME280;36250;48.740;22.174;2023-03-05T07:27:10;100080.81;;;4.18;54.21
50349;BME280;36250;48.740;22.174;2023-03-05T07:29:35;100074.59;;;4.17;54.86
50349;BME280;36250;48.740;22.174;2023-03-05T07:32:00;100085.38;;;4.17;54.02
50349;BME280;36250;48.740;22.174;2023-03-05T07:34:26;100074.00;;;4.15;53.84
50349;BME280;36250;48.740;22.174;2023-03-05T07:36:51;100074.00;;;4.15;53.90
50349;BME280;36250;48.740;22.174;2023-03-05T07:39:17;100072.31;;;4.14;54.87
50349;BME280;36250;48.740;22.174;2023-03-05T07:41:45;100061.13;;;4.17;56.37
50349;BME280;36250;48.740;22.174;2023-03-05T07:44:11;100063.41;;;4.14;57.28
50349;BME280;36250;48.740;22.174;2023-03-05T07:46:37;100060.13;;;4.05;56.44
50349;BME280;36250;48.740;22.174;2023-03-05T07:49:03;100068.03;;;4.00;57.12
50349;BME280;36250;48.740;22.174;2023-03-05T07:51:28;100069.88;;;3.99;58.98
50349;BME280;36250;48.740;22.174;2023-03-05T07:53:55;100068.84;;;4.01;57.98
50349;BME280;36250;48.740;22.174;2023-03-05T07:56:30;100065.34;;;3.93;58.35
50349;BME280;36250;48.740;22.174;2023-03-05T07:59:04;100069.50;;;3.83;58.93
50349;BME280;36250;48.740;22.174;2023-03-05T08:01:30;100064.94;;;3.77;59.13
50349;BME280;36250;48.740;22.174;2023-03-05T08:03:56;100066.63;;;3.71;59.35
50349;BME280;36250;48.740;22.174;2023-03-05T08:06:22;100056.88;;;3.77;59.61
50349;BME280;36250;48.740;22.174;2023-03-05T08:08:47;100062.06;;;3.78;59.29
50349;BME280;36250;48.740;22.174;2023-03-05T08:11:14;100063.50;;;3.81;58.81
50349;BME280;36250;48.740;22.174;2023-03-05T08:13:40;100056.47;;;3.80;59.02
50349;BME280;36250;48.740;22.174;2023-03-05T08:16:13;100054.19;;;3.83;58.58
50349;BME280;36250;48.740;22.174;2023-03-05T08:18:39;100052.47;;;4.02;58.62
50349;BME280;36250;48.740;22.174;2023-03-05T08:21:05;100049.13;;;4.13;57.48
50349;BME280;36250;48.740;22.174;2023-03-05T08:23:31;100054.47;;;4.26;56.62
50349;BME280;36250;48.740;22.174;2023-03-05T08:25:58;100049.88;;;4.40;57.35
50349;BME280;36250;48.740;22.174;2023-03-05T08:28:24;100050.84;;;4.52;55.80
50349;BME280;36250;48.740;22.174;2023-03-05T08:30:49;100055.78;;;4.55;56.46
50349;BME280;36250;48.740;22.174;2023-03-05T08:33:15;100051.41;;;4.60;55.86
50349;BME280;36250;48.740;22.174;2023-03-05T08:35:43;100056.00;;;4.53;56.03
50349;BME280;36250;48.740;22.174;2023-03-05T08:38:09;100060.38;;;4.54;56.02
50349;BME280;36250;48.740;22.174;2023-03-05T08:40:34;100065.31;;;4.57;55.85
50349;BME280;36250;48.740;22.174;2023-03-05T08:43:00;100059.31;;;4.55;55.36
50349;BME280;36250;48.740;22.174;2023-03-05T08:45:26;100054.56;;;4.51;55.38
50349;BME280;36250;48.740;22.174;2023-03-05T08:47:53;100058.28;;;4.56;55.21
50349;BME280;36250;48.740;22.174;2023-03-05T08:50:20;100061.53;;;4.65;56.28
50349;BME280;36250;48.740;22.174;2023-03-05T08:52:47;100068.00;;;4.64;55.97
50349;BME280;36250;48.740;22.174;2023-03-05T08:55:12;100056.41;;;4.57;55.32
50349;BME280;36250;48.740;22.174;2023-03-05T08:57:37;100063.44;;;4.58;56.14
50349;BME280;36250;48.740;22.174;2023-03-05T09:00:03;100062.66;;;4.51;54.52
50349;BME280;36250;48.740;22.174;2023-03-05T09:02:29;100073.00;;;4.54;56.47
50349;BME280;36250;48.740;22.174;2023-03-05T09:04:54;100066.38;;;4.56;55.74
50349;BME280;36250;48.740;22.174;2023-03-05T09:07:19;100063.06;;;4.54;54.86
50349;BME280;36250;48.740;22.174;2023-03-05T09:09:45;100062.84;;;4.56;53.95
50349;BME280;36250;48.740;22.174;2023-03-05T09:12:11;100067.41;;;4.55;54.64
50349;BME280;36250;48.740;22.174;2023-03-05T09:14:38;100064.31;;;4.52;55.47
50349;BME280;36250;48.740;22.174;2023-03-05T09:17:03;100070.16;;;4.42;54.87
50349;BME280;36250;48.740;22.174;2023-03-05T09:19:28;100060.84;;;4.38;55.43
50349;BME280;36250;48.740;22.174;2023-03-05T09:21:54;100076.41;;;4.36;55.04
50349;BME280;36250;48.740;22.174;2023-03-05T09:24:19;100069.97;;;4.31;55.56
50349;BME280;36250;48.740;22.174;2023-03-05T09:26:44;100069.34;;;4.35;54.97
50349;BME280;36250;48.740;22.174;2023-03-05T09:29:10;100068.91;;;4.38;55.18
50349;BME280;36250;48.740;22.174;2023-03-05T09:31:36;100068.69;;;4.46;55.47
50349;BME280;36250;48.740;22.174;2023-03-05T09:34:03;100060.38;;;4.48;54.78
50349;BME280;36250;48.740;22.174;2023-03-05T09:36:30;100057.22;;;4.57;54.34
50349;BME280;36250;48.740;22.174;2023-03-05T09:38:55;100053.91;;;4.62;54.77
50349;BME280;36250;48.740;22.174;2023-03-05T09:46:55;100048.72;;;4.92;53.73
50349;BME280;36250;48.740;22.174;2023-03-05T09:49:32;100043.00;;;5.13;54.15
50349;BME280;36250;48.740;22.174;2023-03-05T09:52:12;100042.59;;;5.09;52.73
50349;BME280;36250;48.740;22.174;2023-03-05T09:54:42;100039.41;;;5.19;52.54
50349;BME280;36250;48.740;22.174;2023-03-05T09:57:14;100043.50;;;5.28;52.29
50349;BME280;36250;48.740;22.174;2023-03-05T09:59:47;100032.22;;;5.38;51.32
50349;BME280;36250;48.740;22.174;2023-03-05T10:02:24;100027.16;;;5.48;51.01
50349;BME280;36250;48.740;22.174;2023-03-05T10:04:54;100030.94;;;5.40;50.88
50349;BME280;36250;48.740;22.174;2023-03-05T10:07:32;100023.81;;;5.46;50.69
50349;BME280;36250;48.740;22.174;2023-03-05T10:14:57;100029.53;;;5.56;50.54
50349;BME280;36250;48.740;22.174;2023-03-05T10:27:19;100024.91;;;6.06;49.80
50349;BME280;36250;48.740;22.174;2023-03-05T10:40:40;100016.59;;;5.82;51.78
50349;BME280;36250;48.740;22.174;2023-03-05T10:43:21;100014.69;;;5.89;51.00
50349;BME280;36250;48.740;22.174;2023-03-05T10:45:52;100014.50;;;5.66;51.25
50349;BME280;36250;48.740;22.174;2023-03-05T10:50:59;100002.31;;;5.14;54.35
50349;BME280;36250;48.740;22.174;2023-03-05T10:53:34;99994.22;;;5.14;53.44
50349;BME280;36250;48.740;22.174;2023-03-05T10:56:02;99998.28;;;5.23;53.84
50349;BME280;36250;48.740;22.174;2023-03-05T10:58:28;99999.00;;;5.37;53.05
50349;BME280;36250;48.740;22.174;2023-03-05T11:04:00;99989.13;;;5.67;51.73
50349;BME280;36250;48.740;22.174;2023-03-05T11:06:40;99989.91;;;5.74;52.53
50349;BME280;36250;48.740;22.174;2023-03-05T11:14:24;99971.06;;;6.40;51.15
50349;BME280;36250;48.740;22.174;2023-03-05T11:16:55;99972.09;;;6.69;51.12
50349;BME280;36250;48.740;22.174;2023-03-05T11:19:29;99957.00;;;6.91;50.20
50349;BME280;36250;48.740;22.174;2023-03-05T11:24:35;99954.53;;;7.01;50.13
50349;BME280;36250;48.740;22.174;2023-03-05T11:27:00;99951.97;;;7.06;49.94
50349;BME280;36250;48.740;22.174;2023-03-05T11:29:29;99955.00;;;7.21;49.70
50349;BME280;36250;48.740;22.174;2023-03-05T11:31:55;99944.91;;;7.28;49.09
50349;BME280;36250;48.740;22.174;2023-03-05T11:34:38;99943.25;;;7.27;49.42
50349;BME280;36250;48.740;22.174;2023-03-05T11:37:05;99940.66;;;7.09;49.93
50349;BME280;36250;48.740;22.174;2023-03-05T11:39:32;99932.31;;;7.11;49.87
50349;BME280;36250;48.740;22.174;2023-03-05T11:42:05;99928.44;;;7.18;50.34
50349;BME280;36250;48.740;22.174;2023-03-05T11:44:46;99926.31;;;7.20;50.49
50349;BME280;36250;48.740;22.174;2023-03-05T11:47:38;99921.72;;;7.33;50.12
50349;BME280;36250;48.740;22.174;2023-03-05T11:53:14;99909.94;;;7.39;49.29
50349;BME280;36250;48.740;22.174;2023-03-05T11:55:50;99911.69;;;7.45;49.08
50349;BME280;36250;48.740;22.174;2023-03-05T12:00:54;99905.31;;;7.51;49.19
50349;BME280;36250;48.740;22.174;2023-03-05T12:03:23;99907.47;;;7.60;49.07
50349;BME280;36250;48.740;22.174;2023-03-05T12:05:53;99903.44;;;7.63;49.53
50349;BME280;36250;48.740;22.174;2023-03-05T12:08:26;99902.16;;;7.65;48.93
50349;BME280;36250;48.740;22.174;2023-03-05T12:10:54;99893.31;;;7.47;49.19
50349;BME280;36250;48.740;22.174;2023-03-05T12:16:15;99892.84;;;7.50;49.36
50349;BME280;36250;48.740;22.174;2023-03-05T12:21:21;99881.81;;;7.40;48.99
50349;BME280;36250;48.740;22.174;2023-03-05T12:23:54;99889.72;;;7.18;49.46
50349;BME280;36250;48.740;22.174;2023-03-05T12:35:01;99879.22;;;7.21;50.85
50349;BME280;36250;48.740;22.174;2023-03-05T12:40:00;99870.28;;;7.33;50.67
50349;BME280;36250;48.740;22.174;2023-03-05T12:47:40;99867.81;;;7.08;50.50
50349;BME280;36250;48.740;22.174;2023-03-05T12:55:34;99852.03;;;7.16;50.93
50349;BME280;36250;48.740;22.174;2023-03-05T12:58:12;99854.75;;;6.93;51.27
50349;BME280;36250;48.740;22.174;2023-03-05T13:03:08;99847.81;;;7.20;51.41
50349;BME280;36250;48.740;22.174;2023-03-05T13:05:37;99838.63;;;7.33;51.37
50349;BME280;36250;48.740;22.174;2023-03-05T13:08:18;99839.06;;;7.42;51.59
50349;BME280;36250;48.740;22.174;2023-03-05T13:10:56;99835.41;;;7.48;51.11
50349;BME280;36250;48.740;22.174;2023-03-05T13:13:25;99834.59;;;7.47;50.82
50349;BME280;36250;48.740;22.174;2023-03-05T13:15:51;99838.69;;;7.50;51.16
50349;BME280;36250;48.740;22.174;2023-03-05T13:18:30;99826.22;;;7.49;51.36
50349;BME280;36250;48.740;22.174;2023-03-05T13:23:27;99821.94;;;7.64;50.97
50349;BME280;36250;48.740;22.174;2023-03-05T13:26:15;99817.34;;;7.65;50.35
50349;BME280;36250;48.740;22.174;2023-03-05T13:28:44;99817.81;;;7.62;50.68
50349;BME280;36250;48.740;22.174;2023-03-05T13:31:17;99811.94;;;7.65;51.21
50349;BME280;36250;48.740;22.174;2023-03-05T13:33:56;99810.06;;;7.65;51.34
50349;BME280;36250;48.740;22.174;2023-03-05T13:36:24;99809.69;;;7.62;51.13
50349;BME280;36250;48.740;22.174;2023-03-05T13:38:50;99805.47;;;7.54;51.17
50349;BME280;36250;48.740;22.174;2023-03-05T13:41:26;99798.41;;;7.53;51.38
50349;BME280;36250;48.740;22.174;2023-03-05T13:43:56;99794.91;;;7.53;51.91
50349;BME280;36250;48.740;22.174;2023-03-05T13:46:37;99790.28;;;7.53;51.86
50349;BME280;36250;48.740;22.174;2023-03-05T13:49:24;99793.69;;;7.60;51.79
50349;BME280;36250;48.740;22.174;2023-03-05T13:51:52;99789.47;;;7.53;51.64
50349;BME280;36250;48.740;22.174;2023-03-05T13:54:19;99785.25;;;7.45;51.96
50349;BME280;36250;48.740;22.174;2023-03-05T13:56:58;99792.56;;;7.45;51.77
50349;BME280;36250;48.740;22.174;2023-03-05T13:59:27;99782.56;;;7.45;51.54
50349;BME280;36250;48.740;22.174;2023-03-05T14:01:57;99783.75;;;7.38;52.21
50349;BME280;36250;48.740;22.174;2023-03-05T14:04:28;99778.66;;;7.41;51.85
50349;BME280;36250;48.740;22.174;2023-03-05T14:07:04;99783.03;;;7.42;52.34
50349;BME280;36250;48.740;22.174;2023-03-05T14:09:43;99772.56;;;7.34;53.00
50349;BME280;36250;48.740;22.174;2023-03-05T14:12:37;99777.53;;;7.25;53.04
50349;BME280;36250;48.740;22.174;2023-03-05T14:15:29;99775.56;;;7.21;52.35
50349;BME280;36250;48.740;22.174;2023-03-05T14:20:40;99768.53;;;7.08;51.00
50349;BME280;36250;48.740;22.174;2023-03-05T14:23:44;99762.53;;;7.06;50.55
50349;BME280;36250;48.740;22.174;2023-03-05T14:26:18;99757.72;;;6.85;50.56
50349;BME280;36250;48.740;22.174;2023-03-05T14:29:26;99756.91;;;6.73;51.16
50349;BME280;36250;48.740;22.174;2023-03-05T14:32:02;99754.78;;;6.75;50.88
50349;BME280;36250;48.740;22.174;2023-03-05T14:34:30;99754.22;;;6.61;50.74
50349;BME280;36250;48.740;22.174;2023-03-05T14:36:59;99755.50;;;6.59;51.33
50349;BME280;36250;48.740;22.174;2023-03-05T14:44:49;99747.63;;;6.57;51.05
50349;BME280;36250;48.740;22.174;2023-03-05T14:47:14;99745.97;;;6.56;51.42
50349;BME280;36250;48.740;22.174;2023-03-05T14:49:40;99738.34;;;6.53;52.10
50349;BME280;36250;48.740;22.174;2023-03-05T14:52:05;99751.63;;;6.55;51.59
50349;BME280;36250;48.740;22.174;2023-03-05T14:54:35;99744.44;;;6.49;51.89
50349;BME280;36250;48.740;22.174;2023-03-05T14:57:03;99742.81;;;6.48;51.92
50349;BME280;36250;48.740;22.174;2023-03-05T14:59:28;99737.75;;;6.40;51.86
50349;BME280;36250;48.740;22.174;2023-03-05T15:01:54;99737.19;;;6.38;51.78
50349;BME280;36250;48.740;22.174;2023-03-05T15:04:19;99741.88;;;6.31;52.11
50349;BME280;36250;48.740;22.174;2023-03-05T15:06:45;99740.91;;;6.25;52.42
50349;BME280;36250;48.740;22.174;2023-03-05T15:09:14;99745.81;;;6.17;52.03
50349;BME280;36250;48.740;22.174;2023-03-05T15:11:42;99742.53;;;6.15;52.72
50349;BME280;36250;48.740;22.174;2023-03-05T15:14:08;99733.25;;;6.11;52.84
50349;BME280;36250;48.740;22.174;2023-03-05T15:16:34;99737.25;;;6.08;53.25
50349;BME280;36250;48.740;22.174;2023-03-05T15:18:59;99743.34;;;6.04;52.99
50349;BME280;36250;48.740;22.174;2023-03-05T15:21:27;99738.72;;;5.92;53.12
50349;BME280;36250;48.740;22.174;2023-03-05T15:23:52;99740.72;;;5.85;53.62
50349;BME280;36250;48.740;22.174;2023-03-05T15:26:19;99746.69;;;5.87;53.68
50349;BME280;36250;48.740;22.174;2023-03-05T15:28:46;99744.09;;;5.81;53.50
50349;BME280;36250;48.740;22.174;2023-03-05T15:31:12;99748.19;;;5.83;54.38
50349;BME280;36250;48.740;22.174;2023-03-05T15:33:37;99745.28;;;5.85;54.58
50349;BME280;36250;48.740;22.174;2023-03-05T15:36:03;99742.97;;;5.88;53.88
50349;BME280;36250;48.740;22.174;2023-03-05T15:38:29;99734.63;;;5.90;54.46
50349;BME280;36250;48.740;22.174;2023-03-05T15:40:54;99736.03;;;5.92;54.20
50349;BME280;36250;48.740;22.174;2023-03-05T15:43:20;99742.13;;;5.88;54.23
50349;BME280;36250;48.740;22.174;2023-03-05T15:45:45;99734.28;;;5.86;54.36
50349;BME280;36250;48.740;22.174;2023-03-05T15:48:11;99731.31;;;5.88;55.02
50349;BME280;36250;48.740;22.174;2023-03-05T15:50:38;99730.94;;;5.84;55.00
50349;BME280;36250;48.740;22.174;2023-03-05T15:53:04;99728.47;;;5.83;54.67
50349;BME280;36250;48.740;22.174;2023-03-05T15:55:29;99740.56;;;5.80;55.28
50349;BME280;36250;48.740;22.174;2023-03-05T15:57:54;99733.97;;;5.76;55.32
50349;BME280;36250;48.740;22.174;2023-03-05T16:00:27;99738.16;;;5.72;55.17